Rawson, Argentina
Current Conditions -  °F | °C
As of 5:00 PM on Thursday 27 Nov 2014 (Local Time) from SADF Reporting Station
Clear Clear  
Wind Chill: 81°   Ceiling: Unl
Heat Index: 81°   Visibility: 6mi
Dew Point: 55°   Wind: 10mph
Humidity: 42%   Direction: 50°NE
Pressure: 29.94"   Gusts: NA
Location:  34.6°S, 60.07°W
Report Text: SADF 272000Z 05009KT CAVOK 27/13 Q1014
Loading
Personal Weather Stations






























Interactive Weather Map New forecast layout! Learn more

10-Day Weather Forecast

Advertisements
Track Severe Weather on mobile